This is the latest recevied weather packets stored in our database for station/object CA4LJZ-10. If no packets are shown the sender has not sent any weather packets the latest 10 day(s).
| Time | Temp. | Humidity | Pressure | Rain* | Wind** | Luminosity | Snow |
|---|---|---|---|---|---|---|---|
| 1777987866 | 18.33° C | 41% | 950.8 hPa | - | - | - | - |
| 1777986965 | 18.33° C | 40% | 951 hPa | - | - | - | - |
| 1777986065 | 17.78° C | 42% | 951.3 hPa | - | - | - | - |
| 1777985164 | 16.67° C | 44% | 951.8 hPa | - | - | - | - |
| 1777984263 | 17.22° C | 43% | 952 hPa | - | - | - | - |
| 1777983362 | 16.11° C | 46% | 952.4 hPa | - | - | - | - |
| 1777982461 | 16.11° C | 46% | 952.6 hPa | - | - | - | - |
| 1777981560 | 16.67° C | 42% | 952.7 hPa | - | - | - | - |
| 1777980659 | 16.11° C | 43% | 953.6 hPa | - | - | - | - |
| 1777979758 | 16.67° C | 43% | 953.6 hPa | - | - | - | - |
| 1777978857 | 16.11° C | 45% | 953.8 hPa | - | - | - | - |
| 1777977957 | 15.56° C | 47% | 953.6 hPa | - | - | - | - |
| 1777977056 | 15.56° C | 45% | 953.7 hPa | - | - | - | - |
| 1777976155 | 16.67° C | 42% | 953.2 hPa | - | - | - | - |
| 1777975254 | 16.11° C | 44% | 952.9 hPa | - | - | - | - |
| 1777974353 | 16.67° C | 43% | 952.1 hPa | - | - | - | - |
| 1777973452 | 16.11° C | 44% | 952.5 hPa | - | - | - | - |
| 1777972551 | 16.11° C | 44% | 952.3 hPa | - | - | - | - |
| 1777971650 | 16.11° C | 44% | 951.8 hPa | - | - | - | - |
| 1777970749 | 16.67° C | 42% | 951.7 hPa | - | - | - | - |
| 1777969848 | 17.78° C | 43% | 951.6 hPa | - | - | - | - |
| 1777968970 | 16.11° C | 42% | 951.5 hPa | - | - | - | - |
| 1777968068 | 16.67° C | 42% | 951.2 hPa | - | - | - | - |
| 1777967167 | 16.11° C | 43% | 951.5 hPa | - | - | - | - |
| 1777966266 | 16.11° C | 45% | 951.5 hPa | - | - | - | - |
* Rain since midnight (hover to see other rain measurements)
** Current wind speed in m/s (hover to see current wind gust speed)